Lodge Grass, Montana
Current Conditions -  °F | °C
As of 11:53 AM on Tuesday 21 Oct 2014 (Local Time) from KSHR Reporting Station
Few Clouds Few Clouds  
Wind Chill: 77°   Ceiling: Unl
Heat Index: 77°   Visibility: 10mi
Dew Point: 36°   Wind: 0mph
Humidity: 23%   Direction: NA
Pressure: 29.72"   Gusts: NA
Location:  45.31°N, 107.36°W
Report Text: KSHR 211753Z AUTO 00000KT 10SM FEW100 25/02 A2972 RMK AO2 SLP037 T02500022 10250 20028 58014 TSNO
Loading
Personal Weather Stations






























Interactive Weather Map
Tropical Storm Tracking
New forecast layout! Learn more

10-Day Weather Forecast

Advertisements
Track Severe Weather on mobile